sensor_id;sensor_type;location;lat;lon;timestamp;temperature;humidity
2489;DHT22;1255;48.716;9.124;2023-07-24T00:01:02;19.10;99.90
2489;DHT22;1255;48.716;9.124;2023-07-24T00:03:29;19.20;99.90
2489;DHT22;1255;48.716;9.124;2023-07-24T00:05:59;19.20;99.90
2489;DHT22;1255;48.716;9.124;2023-07-24T00:08:25;19.20;99.90
2489;DHT22;1255;48.716;9.124;2023-07-24T00:10:52;19.10;99.90
2489;DHT22;1255;48.716;9.124;2023-07-24T00:13:19;19.10;99.90
2489;DHT22;1255;48.716;9.124;2023-07-24T00:15:46;19.10;99.90
2489;DHT22;1255;48.716;9.124;2023-07-24T00:18:13;19.10;99.90
2489;DHT22;1255;48.716;9.124;2023-07-24T00:20:40;19.00;99.90
2489;DHT22;1255;48.716;9.124;2023-07-24T00:23:08;19.00;99.90
2489;DHT22;1255;48.716;9.124;2023-07-24T00:25:34;19.00;99.90
2489;DHT22;1255;48.716;9.124;2023-07-24T00:28:01;18.90;99.90
2489;DHT22;1255;48.716;9.124;2023-07-24T00:30:28;18.90;99.90
2489;DHT22;1255;48.716;9.124;2023-07-24T00:32:55;18.80;99.90
2489;DHT22;1255;48.716;9.124;2023-07-24T00:35:21;18.70;99.90
2489;DHT22;1255;48.716;9.124;2023-07-24T00:37:48;18.60;99.90
2489;DHT22;1255;48.716;9.124;2023-07-24T00:40:16;18.60;99.90
2489;DHT22;1255;48.716;9.124;2023-07-24T00:42:46;18.50;99.90
2489;DHT22;1255;48.716;9.124;2023-07-24T00:45:13;18.40;99.90
2489;DHT22;1255;48.716;9.124;2023-07-24T00:50:14;18.20;99.90
2489;DHT22;1255;48.716;9.124;2023-07-24T00:52:41;18.10;99.90
2489;DHT22;1255;48.716;9.124;2023-07-24T00:55:09;18.00;99.90
2489;DHT22;1255;48.716;9.124;2023-07-24T00:57:38;18.00;99.90
2489;DHT22;1255;48.716;9.124;2023-07-24T01:00:06;17.90;99.90
2489;DHT22;1255;48.716;9.124;2023-07-24T01:02:34;17.90;99.90
2489;DHT22;1255;48.716;9.124;2023-07-24T01:05:02;17.90;99.90
2489;DHT22;1255;48.716;9.124;2023-07-24T01:07:29;17.90;99.90
2489;DHT22;1255;48.716;9.124;2023-07-24T01:09:56;17.80;99.90
2489;DHT22;1255;48.716;9.124;2023-07-24T01:12:27;17.80;99.90
2489;DHT22;1255;48.716;9.124;2023-07-24T01:15:06;17.80;99.90
2489;DHT22;1255;48.716;9.124;2023-07-24T01:17:41;17.70;99.90
2489;DHT22;1255;48.716;9.124;2023-07-24T01:20:11;17.70;99.90
2489;DHT22;1255;48.716;9.124;2023-07-24T01:22:47;17.60;99.90
2489;DHT22;1255;48.716;9.124;2023-07-24T01:25:23;17.60;99.90
2489;DHT22;1255;48.716;9.124;2023-07-24T01:27:51;17.50;99.90
2489;DHT22;1255;48.716;9.124;2023-07-24T01:30:19;17.40;99.90
2489;DHT22;1255;48.716;9.124;2023-07-24T01:32:46;17.50;99.90
2489;DHT22;1255;48.716;9.124;2023-07-24T01:35:12;17.40;99.90
2489;DHT22;1255;48.716;9.124;2023-07-24T01:37:40;17.40;99.90
2489;DHT22;1255;48.716;9.124;2023-07-24T01:40:09;17.40;99.90
2489;DHT22;1255;48.716;9.124;2023-07-24T01:42:36;17.40;99.90
2489;DHT22;1255;48.716;9.124;2023-07-24T01:45:06;17.40;99.90
2489;DHT22;1255;48.716;9.124;2023-07-24T01:47:33;17.30;99.90
2489;DHT22;1255;48.716;9.124;2023-07-24T01:50:00;17.30;99.90
2489;DHT22;1255;48.716;9.124;2023-07-24T01:52:27;17.20;99.90
2489;DHT22;1255;48.716;9.124;2023-07-24T01:54:53;17.20;99.90
2489;DHT22;1255;48.716;9.124;2023-07-24T01:57:20;17.20;99.90
2489;DHT22;1255;48.716;9.124;2023-07-24T01:59:47;17.10;99.90
2489;DHT22;1255;48.716;9.124;2023-07-24T02:02:15;17.20;99.90
2489;DHT22;1255;48.716;9.124;2023-07-24T02:04:42;17.10;99.90
2489;DHT22;1255;48.716;9.124;2023-07-24T02:07:09;17.10;99.90
2489;DHT22;1255;48.716;9.124;2023-07-24T02:09:36;17.10;99.90
2489;DHT22;1255;48.716;9.124;2023-07-24T02:12:03;17.10;99.90
2489;DHT22;1255;48.716;9.124;2023-07-24T02:14:30;17.10;99.90
2489;DHT22;1255;48.716;9.124;2023-07-24T02:16:57;17.10;99.90
2489;DHT22;1255;48.716;9.124;2023-07-24T02:19:25;17.10;99.90
2489;DHT22;1255;48.716;9.124;2023-07-24T02:21:51;17.10;99.90
2489;DHT22;1255;48.716;9.124;2023-07-24T02:24:18;17.00;99.90
2489;DHT22;1255;48.716;9.124;2023-07-24T02:26:45;17.00;99.90
2489;DHT22;1255;48.716;9.124;2023-07-24T02:29:11;17.00;99.90
2489;DHT22;1255;48.716;9.124;2023-07-24T02:31:38;16.90;99.90
2489;DHT22;1255;48.716;9.124;2023-07-24T02:34:05;16.90;99.90
2489;DHT22;1255;48.716;9.124;2023-07-24T02:36:33;16.80;99.90
2489;DHT22;1255;48.716;9.124;2023-07-24T02:39:00;16.80;99.90
2489;DHT22;1255;48.716;9.124;2023-07-24T02:41:26;16.70;99.90
2489;DHT22;1255;48.716;9.124;2023-07-24T02:43:53;16.70;99.90
2489;DHT22;1255;48.716;9.124;2023-07-24T02:46:20;16.70;99.90
2489;DHT22;1255;48.716;9.124;2023-07-24T02:48:49;16.70;99.90
2489;DHT22;1255;48.716;9.124;2023-07-24T02:51:16;16.60;99.90
2489;DHT22;1255;48.716;9.124;2023-07-24T02:53:44;16.60;99.90
2489;DHT22;1255;48.716;9.124;2023-07-24T02:56:10;16.50;99.90
2489;DHT22;1255;48.716;9.124;2023-07-24T02:58:37;16.50;99.90
2489;DHT22;1255;48.716;9.124;2023-07-24T03:01:04;16.50;99.90
2489;DHT22;1255;48.716;9.124;2023-07-24T03:03:32;16.40;99.90
2489;DHT22;1255;48.716;9.124;2023-07-24T03:05:58;16.40;99.90
2489;DHT22;1255;48.716;9.124;2023-07-24T03:08:25;16.40;99.90
2489;DHT22;1255;48.716;9.124;2023-07-24T03:10:53;16.30;99.90
2489;DHT22;1255;48.716;9.124;2023-07-24T03:13:20;16.30;99.90
2489;DHT22;1255;48.716;9.124;2023-07-24T03:15:51;16.30;99.90
2489;DHT22;1255;48.716;9.124;2023-07-24T03:18:19;16.20;99.90
2489;DHT22;1255;48.716;9.124;2023-07-24T03:20:46;16.20;99.90
2489;DHT22;1255;48.716;9.124;2023-07-24T03:23:12;16.20;99.90
2489;DHT22;1255;48.716;9.124;2023-07-24T03:25:39;16.10;99.90
2489;DHT22;1255;48.716;9.124;2023-07-24T03:28:07;16.10;99.90
2489;DHT22;1255;48.716;9.124;2023-07-24T03:30:37;16.10;99.90
2489;DHT22;1255;48.716;9.124;2023-07-24T03:33:12;16.00;99.90
2489;DHT22;1255;48.716;9.124;2023-07-24T03:35:48;16.00;99.90
2489;DHT22;1255;48.716;9.124;2023-07-24T03:38:15;15.90;99.90
2489;DHT22;1255;48.716;9.124;2023-07-24T03:40:42;15.90;99.90
2489;DHT22;1255;48.716;9.124;2023-07-24T03:43:10;15.90;99.90
2489;DHT22;1255;48.716;9.124;2023-07-24T03:45:37;15.90;99.90
2489;DHT22;1255;48.716;9.124;2023-07-24T03:48:04;15.90;99.90
2489;DHT22;1255;48.716;9.124;2023-07-24T03:50:36;15.90;99.90
2489;DHT22;1255;48.716;9.124;2023-07-24T03:53:03;16.00;99.90
2489;DHT22;1255;48.716;9.124;2023-07-24T03:55:30;15.90;99.90
2489;DHT22;1255;48.716;9.124;2023-07-24T03:57:56;16.00;99.90
2489;DHT22;1255;48.716;9.124;2023-07-24T04:00:24;16.00;99.90
2489;DHT22;1255;48.716;9.124;2023-07-24T04:02:51;16.10;99.90
2489;DHT22;1255;48.716;9.124;2023-07-24T04:05:18;16.10;99.90
2489;DHT22;1255;48.716;9.124;2023-07-24T04:07:45;16.20;99.90
2489;DHT22;1255;48.716;9.124;2023-07-24T04:10:11;16.20;99.90
2489;DHT22;1255;48.716;9.124;2023-07-24T04:12:38;16.20;99.90
2489;DHT22;1255;48.716;9.124;2023-07-24T04:15:06;16.30;99.90
2489;DHT22;1255;48.716;9.124;2023-07-24T04:17:34;16.30;99.90
2489;DHT22;1255;48.716;9.124;2023-07-24T04:20:01;16.40;99.90
2489;DHT22;1255;48.716;9.124;2023-07-24T04:22:28;16.40;99.90
2489;DHT22;1255;48.716;9.124;2023-07-24T04:24:55;16.40;99.90
2489;DHT22;1255;48.716;9.124;2023-07-24T04:27:21;16.40;99.90
2489;DHT22;1255;48.716;9.124;2023-07-24T04:29:48;16.50;99.90
2489;DHT22;1255;48.716;9.124;2023-07-24T04:32:15;16.50;99.90
2489;DHT22;1255;48.716;9.124;2023-07-24T04:34:43;16.50;99.90
2489;DHT22;1255;48.716;9.124;2023-07-24T04:37:10;16.50;99.90
2489;DHT22;1255;48.716;9.124;2023-07-24T04:39:38;16.60;99.90
2489;DHT22;1255;48.716;9.124;2023-07-24T04:42:05;16.60;99.90
2489;DHT22;1255;48.716;9.124;2023-07-24T04:44:32;16.70;99.90
2489;DHT22;1255;48.716;9.124;2023-07-24T04:46:59;16.70;99.90
2489;DHT22;1255;48.716;9.124;2023-07-24T04:49:28;16.70;99.90
2489;DHT22;1255;48.716;9.124;2023-07-24T04:51:56;16.70;99.90
2489;DHT22;1255;48.716;9.124;2023-07-24T04:54:23;16.80;99.90
2489;DHT22;1255;48.716;9.124;2023-07-24T04:56:50;16.80;99.90
2489;DHT22;1255;48.716;9.124;2023-07-24T04:59:16;16.80;99.90
2489;DHT22;1255;48.716;9.124;2023-07-24T05:01:43;16.80;99.90
2489;DHT22;1255;48.716;9.124;2023-07-24T05:04:10;16.80;99.90
2489;DHT22;1255;48.716;9.124;2023-07-24T05:06:37;16.90;99.90
2489;DHT22;1255;48.716;9.124;2023-07-24T05:09:05;16.90;99.90
2489;DHT22;1255;48.716;9.124;2023-07-24T05:11:31;17.00;99.90
2489;DHT22;1255;48.716;9.124;2023-07-24T05:13:58;17.00;99.90
2489;DHT22;1255;48.716;9.124;2023-07-24T05:16:25;17.10;99.90
2489;DHT22;1255;48.716;9.124;2023-07-24T05:18:52;17.10;99.90
2489;DHT22;1255;48.716;9.124;2023-07-24T05:21:18;17.20;99.90
2489;DHT22;1255;48.716;9.124;2023-07-24T05:23:45;17.20;99.90
2489;DHT22;1255;48.716;9.124;2023-07-24T05:26:13;17.20;99.90
2489;DHT22;1255;48.716;9.124;2023-07-24T05:28:40;17.30;99.90
2489;DHT22;1255;48.716;9.124;2023-07-24T05:31:06;17.40;99.90
2489;DHT22;1255;48.716;9.124;2023-07-24T05:33:33;17.40;99.90
2489;DHT22;1255;48.716;9.124;2023-07-24T05:36:01;17.40;99.90
2489;DHT22;1255;48.716;9.124;2023-07-24T05:38:28;17.50;99.90
2489;DHT22;1255;48.716;9.124;2023-07-24T05:40:55;17.50;99.90
2489;DHT22;1255;48.716;9.124;2023-07-24T05:43:24;17.50;99.90
2489;DHT22;1255;48.716;9.124;2023-07-24T05:45:51;17.60;99.90
2489;DHT22;1255;48.716;9.124;2023-07-24T05:48:18;17.60;99.90
2489;DHT22;1255;48.716;9.124;2023-07-24T05:50:44;17.70;99.90
2489;DHT22;1255;48.716;9.124;2023-07-24T05:53:11;17.70;99.90
2489;DHT22;1255;48.716;9.124;2023-07-24T05:55:38;17.80;99.90
2489;DHT22;1255;48.716;9.124;2023-07-24T05:58:04;17.80;99.90
2489;DHT22;1255;48.716;9.124;2023-07-24T06:00:33;17.80;99.90
2489;DHT22;1255;48.716;9.124;2023-07-24T06:02:59;17.80;99.90
2489;DHT22;1255;48.716;9.124;2023-07-24T06:05:26;17.90;99.90
2489;DHT22;1255;48.716;9.124;2023-07-24T06:07:53;17.90;99.90
2489;DHT22;1255;48.716;9.124;2023-07-24T06:10:19;18.00;99.90
2489;DHT22;1255;48.716;9.124;2023-07-24T06:12:46;18.00;99.90
2489;DHT22;1255;48.716;9.124;2023-07-24T06:15:13;18.10;99.90
2489;DHT22;1255;48.716;9.124;2023-07-24T06:17:41;18.10;99.90
2489;DHT22;1255;48.716;9.124;2023-07-24T06:20:08;18.20;99.90
2489;DHT22;1255;48.716;9.124;2023-07-24T06:22:35;18.20;99.90
2489;DHT22;1255;48.716;9.124;2023-07-24T06:25:02;18.20;99.90
2489;DHT22;1255;48.716;9.124;2023-07-24T06:27:28;18.30;99.90
2489;DHT22;1255;48.716;9.124;2023-07-24T06:29:55;18.30;99.90
2489;DHT22;1255;48.716;9.124;2023-07-24T06:32:22;18.30;99.90
2489;DHT22;1255;48.716;9.124;2023-07-24T06:34:50;18.40;99.90
2489;DHT22;1255;48.716;9.124;2023-07-24T06:37:16;18.40;99.90
2489;DHT22;1255;48.716;9.124;2023-07-24T06:39:43;18.40;99.90
2489;DHT22;1255;48.716;9.124;2023-07-24T06:42:10;18.40;99.90
2489;DHT22;1255;48.716;9.124;2023-07-24T06:44:36;18.50;99.90
2489;DHT22;1255;48.716;9.124;2023-07-24T06:47:04;18.60;99.90
2489;DHT22;1255;48.716;9.124;2023-07-24T06:49:30;18.60;99.90
2489;DHT22;1255;48.716;9.124;2023-07-24T06:51:58;18.70;99.90
2489;DHT22;1255;48.716;9.124;2023-07-24T06:54:25;18.80;99.90
2489;DHT22;1255;48.716;9.124;2023-07-24T06:56:52;18.80;99.90
2489;DHT22;1255;48.716;9.124;2023-07-24T06:59:18;18.90;99.90
2489;DHT22;1255;48.716;9.124;2023-07-24T07:01:45;19.00;99.90
2489;DHT22;1255;48.716;9.124;2023-07-24T07:04:12;19.10;99.90
2489;DHT22;1255;48.716;9.124;2023-07-24T07:06:39;19.10;99.90
2489;DHT22;1255;48.716;9.124;2023-07-24T07:09:07;19.20;99.90
2489;DHT22;1255;48.716;9.124;2023-07-24T07:11:35;19.20;99.90
2489;DHT22;1255;48.716;9.124;2023-07-24T07:14:03;19.30;99.90
2489;DHT22;1255;48.716;9.124;2023-07-24T07:16:34;19.30;99.90
2489;DHT22;1255;48.716;9.124;2023-07-24T07:19:01;19.30;99.90
2489;DHT22;1255;48.716;9.124;2023-07-24T07:21:27;19.40;99.90
2489;DHT22;1255;48.716;9.124;2023-07-24T07:23:54;19.30;99.90
2489;DHT22;1255;48.716;9.124;2023-07-24T07:26:22;19.40;99.90
2489;DHT22;1255;48.716;9.124;2023-07-24T07:28:49;19.40;99.90
2489;DHT22;1255;48.716;9.124;2023-07-24T07:31:16;19.50;99.90
2489;DHT22;1255;48.716;9.124;2023-07-24T07:33:44;19.60;99.90
2489;DHT22;1255;48.716;9.124;2023-07-24T07:36:11;19.50;99.90
2489;DHT22;1255;48.716;9.124;2023-07-24T07:38:38;19.60;99.90
2489;DHT22;1255;48.716;9.124;2023-07-24T07:41:06;19.60;99.90
2489;DHT22;1255;48.716;9.124;2023-07-24T07:43:35;19.60;99.90
2489;DHT22;1255;48.716;9.124;2023-07-24T07:46:03;19.70;99.90
2489;DHT22;1255;48.716;9.124;2023-07-24T07:48:31;19.80;99.90
2489;DHT22;1255;48.716;9.124;2023-07-24T07:50:58;19.80;99.90
2489;DHT22;1255;48.716;9.124;2023-07-24T07:53:24;19.90;99.90
2489;DHT22;1255;48.716;9.124;2023-07-24T07:55:57;20.00;99.90
2489;DHT22;1255;48.716;9.124;2023-07-24T07:58:25;20.00;99.90
2489;DHT22;1255;48.716;9.124;2023-07-24T08:00:53;20.00;99.90
2489;DHT22;1255;48.716;9.124;2023-07-24T08:03:20;20.00;99.90
2489;DHT22;1255;48.716;9.124;2023-07-24T08:05:46;20.00;99.90
2489;DHT22;1255;48.716;9.124;2023-07-24T08:08:13;20.00;99.90
2489;DHT22;1255;48.716;9.124;2023-07-24T08:10:40;19.90;99.90
2489;DHT22;1255;48.716;9.124;2023-07-24T08:13:07;19.90;99.90
2489;DHT22;1255;48.716;9.124;2023-07-24T08:15:34;19.90;99.90
2489;DHT22;1255;48.716;9.124;2023-07-24T08:18:03;19.90;99.90
2489;DHT22;1255;48.716;9.124;2023-07-24T08:20:30;19.80;99.90
2489;DHT22;1255;48.716;9.124;2023-07-24T08:22:57;19.80;99.90
2489;DHT22;1255;48.716;9.124;2023-07-24T08:25:24;19.70;99.90
2489;DHT22;1255;48.716;9.124;2023-07-24T08:27:50;19.60;99.90
2489;DHT22;1255;48.716;9.124;2023-07-24T08:30:17;19.60;99.90
2489;DHT22;1255;48.716;9.124;2023-07-24T08:32:44;19.50;99.90
2489;DHT22;1255;48.716;9.124;2023-07-24T08:35:12;19.40;99.90
2489;DHT22;1255;48.716;9.124;2023-07-24T08:37:42;19.40;99.90
2489;DHT22;1255;48.716;9.124;2023-07-24T08:40:10;19.30;99.90
2489;DHT22;1255;48.716;9.124;2023-07-24T08:42:38;19.30;99.90
2489;DHT22;1255;48.716;9.124;2023-07-24T08:45:10;19.20;99.90
2489;DHT22;1255;48.716;9.124;2023-07-24T08:47:39;19.10;99.90
2489;DHT22;1255;48.716;9.124;2023-07-24T08:50:08;19.10;99.90
2489;DHT22;1255;48.716;9.124;2023-07-24T08:52:38;19.10;99.90
2489;DHT22;1255;48.716;9.124;2023-07-24T08:55:05;19.10;99.90
2489;DHT22;1255;48.716;9.124;2023-07-24T08:57:32;19.10;99.90
2489;DHT22;1255;48.716;9.124;2023-07-24T08:59:59;19.20;99.90
2489;DHT22;1255;48.716;9.124;2023-07-24T09:02:30;19.20;99.90
2489;DHT22;1255;48.716;9.124;2023-07-24T09:04:57;19.30;99.90
2489;DHT22;1255;48.716;9.124;2023-07-24T09:07:24;19.30;99.90
2489;DHT22;1255;48.716;9.124;2023-07-24T09:09:52;19.30;99.90
2489;DHT22;1255;48.716;9.124;2023-07-24T09:12:18;19.30;99.90
2489;DHT22;1255;48.716;9.124;2023-07-24T09:14:45;19.20;99.90
2489;DHT22;1255;48.716;9.124;2023-07-24T09:19:40;19.30;99.90
2489;DHT22;1255;48.716;9.124;2023-07-24T09:22:10;19.40;99.90
2489;DHT22;1255;48.716;9.124;2023-07-24T09:24:38;19.40;99.90
2489;DHT22;1255;48.716;9.124;2023-07-24T09:27:07;19.50;99.90
2489;DHT22;1255;48.716;9.124;2023-07-24T09:29:35;19.40;99.90
2489;DHT22;1255;48.716;9.124;2023-07-24T09:32:02;19.50;99.90
2489;DHT22;1255;48.716;9.124;2023-07-24T09:34:29;19.60;99.90
2489;DHT22;1255;48.716;9.124;2023-07-24T09:36:55;19.60;99.90
2489;DHT22;1255;48.716;9.124;2023-07-24T09:39:23;19.50;99.90
2489;DHT22;1255;48.716;9.124;2023-07-24T09:41:51;19.50;99.90
2489;DHT22;1255;48.716;9.124;2023-07-24T09:44:19;19.50;99.90
2489;DHT22;1255;48.716;9.124;2023-07-24T09:46:46;19.50;99.90
2489;DHT22;1255;48.716;9.124;2023-07-24T09:49:13;19.50;99.90
2489;DHT22;1255;48.716;9.124;2023-07-24T09:51:42;19.50;99.90
2489;DHT22;1255;48.716;9.124;2023-07-24T09:54:15;19.50;99.90
2489;DHT22;1255;48.716;9.124;2023-07-24T09:56:46;19.60;99.90
2489;DHT22;1255;48.716;9.124;2023-07-24T09:59:13;19.50;99.90
2489;DHT22;1255;48.716;9.124;2023-07-24T10:01:42;19.60;99.90
2489;DHT22;1255;48.716;9.124;2023-07-24T10:04:09;19.60;99.90
2489;DHT22;1255;48.716;9.124;2023-07-24T10:06:36;19.60;99.90
2489;DHT22;1255;48.716;9.124;2023-07-24T10:09:03;19.60;99.90
2489;DHT22;1255;48.716;9.124;2023-07-24T10:11:30;19.60;99.90
2489;DHT22;1255;48.716;9.124;2023-07-24T10:13:57;19.60;99.90
2489;DHT22;1255;48.716;9.124;2023-07-24T10:16:24;19.60;99.90
2489;DHT22;1255;48.716;9.124;2023-07-24T10:18:52;19.60;99.90
2489;DHT22;1255;48.716;9.124;2023-07-24T10:21:26;19.50;99.90
2489;DHT22;1255;48.716;9.124;2023-07-24T10:23:53;19.50;99.90
2489;DHT22;1255;48.716;9.124;2023-07-24T10:26:24;19.50;99.90
2489;DHT22;1255;48.716;9.124;2023-07-24T10:28:52;19.50;99.90
2489;DHT22;1255;48.716;9.124;2023-07-24T10:31:20;19.50;99.90
2489;DHT22;1255;48.716;9.124;2023-07-24T10:33:48;19.40;99.90
2489;DHT22;1255;48.716;9.124;2023-07-24T10:36:19;19.40;99.90
2489;DHT22;1255;48.716;9.124;2023-07-24T10:38:52;19.40;99.90
2489;DHT22;1255;48.716;9.124;2023-07-24T10:41:20;19.40;99.90
2489;DHT22;1255;48.716;9.124;2023-07-24T10:43:48;19.40;99.90
2489;DHT22;1255;48.716;9.124;2023-07-24T10:46:16;19.30;99.90
2489;DHT22;1255;48.716;9.124;2023-07-24T10:48:45;19.30;99.90
2489;DHT22;1255;48.716;9.124;2023-07-24T10:51:12;19.20;99.90
2489;DHT22;1255;48.716;9.124;2023-07-24T10:53:44;19.20;99.90
2489;DHT22;1255;48.716;9.124;2023-07-24T10:56:12;19.10;99.90
2489;DHT22;1255;48.716;9.124;2023-07-24T10:58:38;19.00;99.90
2489;DHT22;1255;48.716;9.124;2023-07-24T11:01:06;18.90;99.90
2489;DHT22;1255;48.716;9.124;2023-07-24T11:03:36;18.90;99.90
2489;DHT22;1255;48.716;9.124;2023-07-24T11:06:03;18.80;99.90
2489;DHT22;1255;48.716;9.124;2023-07-24T11:08:30;18.70;99.90
2489;DHT22;1255;48.716;9.124;2023-07-24T11:10:59;18.70;99.90
2489;DHT22;1255;48.716;9.124;2023-07-24T11:13:28;18.70;99.90
2489;DHT22;1255;48.716;9.124;2023-07-24T11:15:55;18.60;99.90
2489;DHT22;1255;48.716;9.124;2023-07-24T11:18:22;18.60;99.90
2489;DHT22;1255;48.716;9.124;2023-07-24T11:20:53;18.60;99.90
2489;DHT22;1255;48.716;9.124;2023-07-24T11:23:20;18.60;99.90
2489;DHT22;1255;48.716;9.124;2023-07-24T11:25:49;18.60;99.90
2489;DHT22;1255;48.716;9.124;2023-07-24T11:28:17;18.50;99.90
2489;DHT22;1255;48.716;9.124;2023-07-24T11:30:44;18.50;99.90
2489;DHT22;1255;48.716;9.124;2023-07-24T11:33:13;18.50;99.90
2489;DHT22;1255;48.716;9.124;2023-07-24T11:35:41;18.60;99.90
2489;DHT22;1255;48.716;9.124;2023-07-24T11:38:09;18.60;99.90
2489;DHT22;1255;48.716;9.124;2023-07-24T11:40:37;18.70;99.90
2489;DHT22;1255;48.716;9.124;2023-07-24T11:43:04;19.00;99.90
2489;DHT22;1255;48.716;9.124;2023-07-24T11:45:41;19.40;99.90
2489;DHT22;1255;48.716;9.124;2023-07-24T11:48:09;19.60;99.90
2489;DHT22;1255;48.716;9.124;2023-07-24T11:50:42;19.80;99.90
2489;DHT22;1255;48.716;9.124;2023-07-24T11:53:19;19.90;99.90
2489;DHT22;1255;48.716;9.124;2023-07-24T11:55:47;19.80;99.90
2489;DHT22;1255;48.716;9.124;2023-07-24T11:58:15;19.70;99.90
2489;DHT22;1255;48.716;9.124;2023-07-24T12:00:43;19.60;99.90
2489;DHT22;1255;48.716;9.124;2023-07-24T12:03:11;19.50;99.90
2489;DHT22;1255;48.716;9.124;2023-07-24T12:05:38;19.40;99.90
2489;DHT22;1255;48.716;9.124;2023-07-24T12:08:06;19.40;99.90
2489;DHT22;1255;48.716;9.124;2023-07-24T12:10:36;19.50;99.90
2489;DHT22;1255;48.716;9.124;2023-07-24T12:13:03;19.60;99.90
2489;DHT22;1255;48.716;9.124;2023-07-24T12:15:30;19.60;99.90
2489;DHT22;1255;48.716;9.124;2023-07-24T12:17:59;19.90;99.90
2489;DHT22;1255;48.716;9.124;2023-07-24T12:20:27;20.00;99.90
2489;DHT22;1255;48.716;9.124;2023-07-24T12:22:54;20.10;99.90
2489;DHT22;1255;48.716;9.124;2023-07-24T12:25:21;20.20;99.90
2489;DHT22;1255;48.716;9.124;2023-07-24T12:27:47;20.30;99.90
2489;DHT22;1255;48.716;9.124;2023-07-24T12:30:14;20.40;99.90
2489;DHT22;1255;48.716;9.124;2023-07-24T12:32:41;20.40;99.90
2489;DHT22;1255;48.716;9.124;2023-07-24T12:35:10;20.50;99.90
2489;DHT22;1255;48.716;9.124;2023-07-24T12:37:36;20.50;99.90
2489;DHT22;1255;48.716;9.124;2023-07-24T12:40:05;20.40;99.90
2489;DHT22;1255;48.716;9.124;2023-07-24T12:42:32;20.40;99.90
2489;DHT22;1255;48.716;9.124;2023-07-24T12:44:59;20.30;99.90
2489;DHT22;1255;48.716;9.124;2023-07-24T12:47:28;20.30;99.90
2489;DHT22;1255;48.716;9.124;2023-07-24T12:49:55;20.40;99.90
2489;DHT22;1255;48.716;9.124;2023-07-24T12:52:24;20.60;99.90
2489;DHT22;1255;48.716;9.124;2023-07-24T12:54:51;20.80;99.90
2489;DHT22;1255;48.716;9.124;2023-07-24T12:57:17;20.90;99.90
2489;DHT22;1255;48.716;9.124;2023-07-24T12:59:44;21.00;99.90
2489;DHT22;1255;48.716;9.124;2023-07-24T13:02:11;21.10;99.90
2489;DHT22;1255;48.716;9.124;2023-07-24T13:04:38;21.10;99.90
2489;DHT22;1255;48.716;9.124;2023-07-24T13:07:05;21.20;99.90
2489;DHT22;1255;48.716;9.124;2023-07-24T13:09:33;21.20;99.90
2489;DHT22;1255;48.716;9.124;2023-07-24T13:12:00;21.30;99.90
2489;DHT22;1255;48.716;9.124;2023-07-24T13:14:27;21.40;99.90
2489;DHT22;1255;48.716;9.124;2023-07-24T13:16:53;21.60;99.90
2489;DHT22;1255;48.716;9.124;2023-07-24T13:19:20;21.70;99.90
2489;DHT22;1255;48.716;9.124;2023-07-24T13:21:47;22.00;99.90
2489;DHT22;1255;48.716;9.124;2023-07-24T13:24:14;22.20;99.90
2489;DHT22;1255;48.716;9.124;2023-07-24T13:26:42;22.40;99.90
2489;DHT22;1255;48.716;9.124;2023-07-24T13:29:09;22.60;99.90
2489;DHT22;1255;48.716;9.124;2023-07-24T13:31:36;22.80;99.90
2489;DHT22;1255;48.716;9.124;2023-07-24T13:34:03;23.10;99.90
2489;DHT22;1255;48.716;9.124;2023-07-24T13:36:29;23.00;99.90
2489;DHT22;1255;48.716;9.124;2023-07-24T13:38:56;22.80;99.90
2489;DHT22;1255;48.716;9.124;2023-07-24T13:41:23;22.60;99.90
2489;DHT22;1255;48.716;9.124;2023-07-24T13:43:51;22.40;99.90
2489;DHT22;1255;48.716;9.124;2023-07-24T13:46:18;22.30;99.90
2489;DHT22;1255;48.716;9.124;2023-07-24T13:48:45;22.30;99.90
2489;DHT22;1255;48.716;9.124;2023-07-24T13:51:11;22.20;99.90
2489;DHT22;1255;48.716;9.124;2023-07-24T13:53:38;22.20;99.90
2489;DHT22;1255;48.716;9.124;2023-07-24T13:56:05;22.20;99.90
2489;DHT22;1255;48.716;9.124;2023-07-24T13:58:32;22.30;99.90
2489;DHT22;1255;48.716;9.124;2023-07-24T14:01:00;22.50;99.90
2489;DHT22;1255;48.716;9.124;2023-07-24T14:03:27;22.60;99.90
2489;DHT22;1255;48.716;9.124;2023-07-24T14:05:55;22.70;99.90
2489;DHT22;1255;48.716;9.124;2023-07-24T14:08:23;22.70;99.90
2489;DHT22;1255;48.716;9.124;2023-07-24T14:10:50;22.80;99.90
2489;DHT22;1255;48.716;9.124;2023-07-24T14:13:17;22.80;99.90
2489;DHT22;1255;48.716;9.124;2023-07-24T14:15:44;23.00;99.90
2489;DHT22;1255;48.716;9.124;2023-07-24T14:18:12;23.20;99.90
2489;DHT22;1255;48.716;9.124;2023-07-24T14:20:38;23.20;99.90
2489;DHT22;1255;48.716;9.124;2023-07-24T14:23:06;23.30;99.90
2489;DHT22;1255;48.716;9.124;2023-07-24T14:25:33;23.30;99.90
2489;DHT22;1255;48.716;9.124;2023-07-24T14:28:00;23.10;99.90
2489;DHT22;1255;48.716;9.124;2023-07-24T14:30:28;23.10;99.90
2489;DHT22;1255;48.716;9.124;2023-07-24T14:32:55;23.00;99.90
2489;DHT22;1255;48.716;9.124;2023-07-24T14:35:23;22.80;99.90
2489;DHT22;1255;48.716;9.124;2023-07-24T14:37:50;22.70;99.90
2489;DHT22;1255;48.716;9.124;2023-07-24T14:40:17;22.60;99.90
2489;DHT22;1255;48.716;9.124;2023-07-24T14:42:44;22.60;99.90
2489;DHT22;1255;48.716;9.124;2023-07-24T14:45:11;22.60;99.90
2489;DHT22;1255;48.716;9.124;2023-07-24T14:47:38;22.60;99.90
2489;DHT22;1255;48.716;9.124;2023-07-24T14:50:06;22.60;99.90
2489;DHT22;1255;48.716;9.124;2023-07-24T14:52:34;22.70;99.90
2489;DHT22;1255;48.716;9.124;2023-07-24T14:55:01;22.70;99.90
2489;DHT22;1255;48.716;9.124;2023-07-24T14:57:28;22.80;99.90
2489;DHT22;1255;48.716;9.124;2023-07-24T14:59:55;22.80;99.90
2489;DHT22;1255;48.716;9.124;2023-07-24T15:02:21;22.70;99.90
2489;DHT22;1255;48.716;9.124;2023-07-24T15:04:48;22.60;99.90
2489;DHT22;1255;48.716;9.124;2023-07-24T15:07:15;22.50;99.90
2489;DHT22;1255;48.716;9.124;2023-07-24T15:09:43;22.40;99.90
2489;DHT22;1255;48.716;9.124;2023-07-24T15:12:10;22.40;99.90
2489;DHT22;1255;48.716;9.124;2023-07-24T15:14:36;22.40;99.90
2489;DHT22;1255;48.716;9.124;2023-07-24T15:17:03;22.30;99.90
2489;DHT22;1255;48.716;9.124;2023-07-24T15:19:30;22.30;99.90
2489;DHT22;1255;48.716;9.124;2023-07-24T15:21:57;22.20;99.90
2489;DHT22;1255;48.716;9.124;2023-07-24T15:24:23;22.10;99.90
2489;DHT22;1255;48.716;9.124;2023-07-24T15:26:51;22.10;99.90
2489;DHT22;1255;48.716;9.124;2023-07-24T15:29:18;22.10;99.90
2489;DHT22;1255;48.716;9.124;2023-07-24T15:31:45;22.00;99.90
2489;DHT22;1255;48.716;9.124;2023-07-24T15:34:12;22.00;99.90
2489;DHT22;1255;48.716;9.124;2023-07-24T15:36:38;21.90;99.90
2489;DHT22;1255;48.716;9.124;2023-07-24T15:39:05;21.80;99.90
2489;DHT22;1255;48.716;9.124;2023-07-24T15:41:32;21.70;99.90
2489;DHT22;1255;48.716;9.124;2023-07-24T15:44:00;21.60;99.90
2489;DHT22;1255;48.716;9.124;2023-07-24T15:46:27;21.40;99.90
2489;DHT22;1255;48.716;9.124;2023-07-24T15:48:57;21.30;99.90
2489;DHT22;1255;48.716;9.124;2023-07-24T15:51:24;21.20;99.90
2489;DHT22;1255;48.716;9.124;2023-07-24T15:53:51;21.20;99.90
2489;DHT22;1255;48.716;9.124;2023-07-24T15:56:19;21.20;99.90
2489;DHT22;1255;48.716;9.124;2023-07-24T15:58:47;21.20;99.90
2489;DHT22;1255;48.716;9.124;2023-07-24T16:01:15;21.20;99.90
2489;DHT22;1255;48.716;9.124;2023-07-24T16:03:43;21.20;99.90
2489;DHT22;1255;48.716;9.124;2023-07-24T16:06:10;21.20;99.90
2489;DHT22;1255;48.716;9.124;2023-07-24T16:08:37;21.20;99.90